Hay múltiples Alarmas Climaticas   Haga clic aquí para obtener mas informacion

Nearby METAR Reports

 

KSJC - San Jose, California, USA
Distance from station: NE 14km
Actualización: 20/07/2018 07:53
Despejado
Despejado
 Viento del ONO
Viento: ONO 7 km/h
Temperatura: 19°C
Rocío: 14°C
Humedad: 73%
Barómetro: 1012.2 hPa
Clouds: Despejado
Visibility: 16 km
2018/07/20 05:53 KSJC 200553Z 30004KT 10SM CLR 19/14 A2989 RMK AO2 SLP120 T01940144 10278 20194 51012
KNUQ - Moffett Nas/Mtn, California, USA
Distance from station: N 14km
Actualización: 20/07/2018 07:56
Despejado
Despejado
 Viento del ONO
Viento: ONO 6 km/h
Temperatura: 17°C
Rocío: 14°C
Humedad: 83%
Barómetro: 1012.5 hPa
Clouds: Despejado
Visibility: 16 km
2018/07/20 05:56 KNUQ 200556Z 30003KT 10SM CLR 17/14 A2990 RMK AO2 SLP126 T01670144 10222 20167 51010
 
KPAO - Palo Alto, California, USA
Distance from station: NNO 23km
Actualización: 20/07/2018 03:47
NOT Current
Few Clouds
Few Clouds
 Viento del NNO
Viento: NNO 20 km/h
Temperatura: 23°C
Rocío: 16°C
Humedad: 65%
Barómetro: 1011.5 hPa
Clouds: Few Clouds
Visibility: 16 km
Cloud details: Few Clouds 3658 m
2018/07/20 01:47 KPAO 200147Z 33011KT 10SM FEW120 23/16 A2987
KRHV - San Jose/Reid, California, USA
Distance from station: ENE 19km
Actualización: 20/07/2018 06:55
NOT Current
Despejado
Despejado
 Viento del NO
Viento: NO 9 km/h
Temperatura: 21°C
Rocío: 15°C
Humedad: 69%
Barómetro: 1011.2 hPa
Clouds: Despejado
Visibility: 16 km
2018/07/20 04:55 KRHV 200455Z 31005KT 10SM SKC 21/15 A2986
 
KOAK - Oakland, California, USA
Distance from station: NNO 50km
Actualización: 20/07/2018 07:53
Few Clouds
Few Clouds
 Viento del NO
Viento: NO 13 km/h
Temperatura: 15°C
Rocío: 13°C
Humedad: 88%
Barómetro: 1012.5 hPa
Clouds: Few Clouds
Visibility: 16 km
Cloud details: Few Clouds 244 m
2018/07/20 05:53 KOAK 200553Z 31007KT 10SM FEW008 15/13 A2990 RMK AO2 SLP123 T01500133 10194 20144 53009
KSQL - San Carlos Airpo, California, USA
Distance from station: NO 34km
Actualización: 20/07/2018 08:40
Despejado
Despejado
 Viento del ONO
Viento: ONO 6 km/h
Temperatura: 17°C
Rocío: 13°C
Humedad: 77%
Barómetro: 1012.2 hPa
Clouds: Despejado
Visibility: 16 km
2018/07/20 06:40 KSQL 200640Z AUTO 30003KT 10SM CLR 17/13 A2989 RMK AO2
 
KSFO - San Francisco, California, USA
Distance from station: NO 49km
Actualización: 20/07/2018 07:56
Few Clouds
Few Clouds
 Viento del ONO
Viento: ONO 15 km/h
Temperatura: 14°C
Rocío: 12°C
Humedad: 88%
Barómetro: 1011.9 hPa
Clouds: Few Clouds
Visibility: 16 km
Cloud details: Few Clouds 122 m
2018/07/20 05:56 KSFO 200556Z 30008KT 10SM FEW004 14/12 A2988 RMK AO2 SLP119 T01440122 10200 20144 52010
KE16 - San Martin, California, USA
Distance from station: ESE 43km
Actualización: 18/07/2018 22:15
NOT Current
Despejado
Despejado
 Viento del S
Viento: S 11 km/h
Temperatura: 28°C
Rocío: 12°C
Humedad: 37%
Barómetro: 1015.2 hPa
Clouds: Despejado
Visibility: 14 km
2018/07/18 20:15 KE16 182015Z AUTO 17006KT 9SM CLR 28/12 A2998 RMK AO2
 
KWVI - Watsonville, California, USA
Distance from station: SSE 44km
Actualización: 20/07/2018 07:53
Cubierto
Cubierto
 Viento del O
Viento: O 6 km/h
Temperatura: 13°C
Rocío: 13°C
Humedad: 100%
Barómetro: 1013.5 hPa
Clouds: Cubierto
Visibility: 14 km
Cloud details: Cubierto 152 m
2018/07/20 05:53 KWVI 200553Z AUTO 26003KT 9SM OVC005 13/13 A2993 RMK AO2 SLP136 T01330128 10222 20133 51007
KHAF - Half Moon Bay, California, USA
Distance from station: ONO 50km
Actualización: 20/07/2018 08:40
Mist, Cubierto
Mist, Cubierto
 Viento del S
Viento: S 19 km/h
Temperatura: 14°C
Rocío: 13°C
Humedad: 94%
Barómetro: 1013.2 hPa
Resumen: Mist
Clouds: Cubierto
Visibility: 8 km
Cloud details: Cubierto 122 m
2018/07/20 06:40 KHAF 200640Z AUTO 17010KT 5SM BR OVC004 14/13 A2992 RMK AO2
 
KHWD - Hayward, California, USA
Distance from station: N 44km
Actualización: 20/07/2018 07:54
Despejado
Despejado
 Viento del NNO
Viento: NNO 13 km/h
Temperatura: 17°C
Rocío: 12°C
Humedad: 73%
Barómetro: 1012.2 hPa
Clouds: Despejado
Visibility: 16 km
2018/07/20 05:54 KHWD 200554Z 33007KT 10SM CLR 17/12 A2989 RMK AO2 SLP129 T01670122 10250 20167 51009
KLVK - Livermore, California, USA
Distance from station: NNE 51km
Actualización: 20/07/2018 07:53
Despejado
Despejado
 Viento del O
Viento: O 7 km/h
Temperatura: 22°C
Rocío: 10°C
Humedad: 47%
Barómetro: 1011.2 hPa
Clouds: Despejado
Visibility: 16 km
2018/07/20 05:53 KLVK 200553Z AUTO 26004KT 10SM CLR 22/10 A2986 RMK AO2 SLP106 T02170100 10344 20217 53010